createdAt,value
2016-07-19T00:00:18.500Z,85.48
2016-07-19T00:01:18.490Z,85.48
2016-07-19T00:02:18.477Z,85.38
2016-07-19T00:03:18.470Z,85.38
2016-07-19T00:04:18.458Z,85.38
2016-07-19T00:05:18.451Z,85.38
2016-07-19T00:06:19.146Z,85.48
2016-07-19T00:07:18.431Z,85.48
2016-07-19T00:08:18.451Z,85.67
2016-07-19T00:09:18.409Z,85.48
2016-07-19T00:10:18.407Z,85.48
2016-07-19T00:11:18.392Z,85.77
2016-07-19T00:12:18.383Z,86.15
2016-07-19T00:13:19.082Z,86.25
2016-07-19T00:14:19.073Z,86.25
2016-07-19T00:15:19.061Z,86.34
2016-07-19T00:16:18.342Z,86.49
2016-07-19T00:17:19.044Z,86.34
2016-07-19T00:18:18.323Z,85.96
2016-07-19T00:19:19.023Z,86.34
2016-07-19T00:20:19.012Z,85.96
2016-07-19T00:21:18.299Z,86.25
2016-07-19T00:22:18.284Z,86.15
2016-07-19T00:23:18.330Z,86.01
2016-07-19T00:24:18.274Z,86.58
2016-07-19T00:25:18.307Z,86.58
2016-07-19T00:26:18.250Z,86.3
2016-07-19T00:27:18.945Z,86.58
2016-07-19T00:28:18.230Z,86.68
2016-07-19T00:29:18.218Z,86.68
2016-07-19T00:30:18.918Z,86.58
2016-07-19T00:31:18.911Z,86.88
2016-07-19T00:32:18.901Z,86.68
2016-07-19T00:33:18.183Z,86.88
2016-07-19T00:34:18.881Z,87.26
2016-07-19T00:35:18.365Z,86.88
2016-07-19T00:36:18.873Z,86.68
2016-07-19T00:37:18.853Z,86.58
2016-07-19T00:38:18.843Z,86.58
2016-07-19T00:39:18.833Z,86.49
2016-07-19T00:40:18.823Z,86.78
2016-07-19T00:41:18.156Z,86.78
2016-07-19T00:42:18.817Z,86.97
2016-07-19T00:43:18.097Z,87.26
2016-07-19T00:44:18.832Z,87.35
2016-07-19T00:45:18.074Z,87.26
2016-07-19T00:46:18.766Z,86.78
2016-07-19T00:47:18.757Z,86.97
2016-07-19T00:48:18.089Z,87.07
2016-07-19T00:49:18.734Z,87.45
2016-07-19T00:50:18.021Z,86.68
2016-07-19T00:51:18.007Z,87.07
2016-07-19T00:52:17.997Z,86.78
2016-07-19T00:53:18.698Z,86.58
2016-07-19T00:54:17.979Z,86.68
2016-07-19T00:55:18.674Z,86.58
2016-07-19T00:56:17.959Z,86.58
2016-07-19T00:57:17.953Z,86.49
2016-07-19T00:58:17.941Z,86.49
2016-07-19T00:59:18.637Z,86.74
2016-07-19T01:00:17.923Z,86.54
2016-07-19T01:01:17.915Z,86.64
2016-07-19T01:02:18.607Z,86.93
2016-07-19T01:03:17.890Z,86.74
2016-07-19T01:04:18.592Z,86.93
2016-07-19T01:05:17.871Z,86.54
2016-07-19T01:06:17.863Z,86.93
2016-07-19T01:07:17.851Z,86.83
2016-07-19T01:08:17.892Z,86.83
2016-07-19T01:09:18.537Z,86.93
2016-07-19T01:10:18.528Z,86.64
2016-07-19T01:11:18.515Z,86.54
2016-07-19T01:12:17.804Z,86.35
2016-07-19T01:13:17.789Z,86.64
2016-07-19T01:14:18.502Z,86.54
2016-07-19T01:15:18.482Z,86.64
2016-07-19T01:16:18.473Z,86.35
2016-07-19T01:17:18.460Z,86.93
2016-07-19T01:18:17.740Z,87.41
2016-07-19T01:19:17.733Z,87.98
2016-07-19T01:20:18.429Z,87.84
2016-07-19T01:21:18.424Z,87.98
2016-07-19T01:22:17.703Z,88.03
2016-07-19T01:23:17.691Z,88.61
2016-07-19T01:24:17.690Z,88.32
2016-07-19T01:25:18.384Z,88.42
2016-07-19T01:26:17.661Z,88.7
2016-07-19T01:27:18.359Z,88.7
2016-07-19T01:28:18.348Z,88.23
2016-07-19T01:29:17.632Z,88.13
2016-07-19T01:30:17.623Z,89.18
2016-07-19T01:31:17.616Z,88.61
2016-07-19T01:32:18.313Z,88.61
2016-07-19T01:33:17.594Z,88.9
2016-07-19T01:34:17.584Z,88.99
2016-07-19T01:35:18.281Z,88.61
2016-07-19T01:36:18.269Z,88.99
2016-07-19T01:37:17.553Z,89.09
2016-07-19T01:38:17.547Z,89.18
2016-07-19T01:39:17.531Z,88.42
2016-07-19T01:40:18.229Z,88.61
2016-07-19T01:41:17.510Z,88.7
2016-07-19T01:42:17.503Z,88.51
2016-07-19T01:43:17.494Z,88.23
2016-07-19T01:44:17.485Z,88.03
2016-07-19T01:45:18.183Z,88.61
2016-07-19T01:46:18.166Z,88.42
2016-07-19T01:47:18.157Z,89.28
2016-07-19T01:48:17.458Z,88.9
2016-07-19T01:49:17.431Z,88.9
2016-07-19T01:50:17.418Z,88.8
2016-07-19T01:51:17.408Z,88.9
2016-07-19T01:52:18.106Z,88.99
2016-07-19T01:53:17.386Z,88.9
2016-07-19T01:54:18.084Z,88.7
2016-07-19T01:55:18.075Z,88.61
2016-07-19T01:56:18.064Z,88.61
2016-07-19T01:57:17.349Z,89.09
2016-07-19T01:58:18.045Z,88.56
2016-07-19T01:59:17.331Z,88.99
2016-07-19T02:00:17.314Z,88.8
2016-07-19T02:01:18.013Z,88.99
2016-07-19T02:02:17.299Z,88.85
2016-07-19T02:03:17.284Z,89.14
2016-07-19T02:04:17.979Z,88.85
2016-07-19T02:05:17.265Z,89.14
2016-07-19T02:06:17.255Z,88.95
2016-07-19T02:07:17.245Z,88.95
2016-07-19T02:08:17.236Z,88.85
2016-07-19T02:09:17.223Z,88.95
2016-07-19T02:10:17.210Z,88.85
2016-07-19T02:11:17.907Z,89.14
2016-07-19T02:12:17.192Z,88.85
2016-07-19T02:13:17.893Z,88.85
2016-07-19T02:14:17.169Z,89.23
2016-07-19T02:15:17.159Z,89.14
2016-07-19T02:16:17.867Z,88.76
2016-07-19T02:17:17.140Z,89.14
2016-07-19T02:18:17.837Z,89.23
2016-07-19T02:19:17.826Z,89.14
2016-07-19T02:20:17.814Z,88.95
2016-07-19T02:21:17.099Z,89.43
2016-07-19T02:22:17.087Z,89.43
2016-07-19T02:23:17.078Z,89.43
2016-07-19T02:24:17.068Z,89.62
2016-07-19T02:25:17.055Z,89.14
2016-07-19T02:26:17.048Z,89.14
2016-07-19T02:27:17.741Z,89.72
2016-07-19T02:28:17.733Z,89.62
2016-07-19T02:29:17.018Z,89.62
2016-07-19T02:30:17.003Z,90.19
2016-07-19T02:31:16.992Z,89.81
2016-07-19T02:32:17.031Z,89.76
2016-07-19T02:33:16.973Z,89.95
2016-07-19T02:34:16.960Z,89.58
2016-07-19T02:35:17.152Z,90.05
2016-07-19T02:36:17.647Z,90.24
2016-07-19T02:37:16.926Z,90.24
2016-07-19T02:38:16.919Z,90.15
2016-07-19T02:39:16.906Z,90.05
2016-07-19T02:40:17.606Z,90.72
2016-07-19T02:41:16.883Z,90.53
2016-07-19T02:42:16.879Z,90.63
2016-07-19T02:43:17.581Z,90.63
2016-07-19T02:44:16.860Z,90.91
2016-07-19T02:45:17.553Z,90.34
2016-07-19T02:46:17.547Z,90.72
2016-07-19T02:47:16.822Z,91.11
2016-07-19T02:48:17.519Z,90.91
2016-07-19T02:49:17.507Z,90.72
2016-07-19T02:50:16.789Z,90.82
2016-07-19T02:51:16.779Z,90.91
2016-07-19T02:52:17.485Z,91.11
2016-07-19T02:53:16.759Z,91.01
2016-07-19T02:54:16.748Z,91.3
2016-07-19T02:55:16.736Z,91.2
2016-07-19T02:56:17.438Z,90.91
2016-07-19T02:57:16.720Z,90.91
2016-07-19T02:58:16.707Z,90.72
2016-07-19T02:59:16.742Z,90.91
2016-07-19T03:00:16.683Z,91.01
2016-07-19T03:01:16.674Z,91.3
2016-07-19T03:02:16.661Z,91.11
2016-07-19T03:03:16.649Z,91.11
2016-07-19T03:04:17.363Z,90.77
2016-07-19T03:05:16.628Z,91.06
2016-07-19T03:06:17.326Z,91.35
2016-07-19T03:07:16.621Z,91.06
2016-07-19T03:08:17.310Z,90.87
2016-07-19T03:09:16.587Z,91.25
2016-07-19T03:10:16.574Z,90.67
2016-07-19T03:11:17.271Z,90.77
2016-07-19T03:12:17.261Z,90.96
2016-07-19T03:13:16.546Z,91.25
2016-07-19T03:14:17.238Z,91.35
2016-07-19T03:15:16.523Z,91.35
2016-07-19T03:16:16.509Z,91.06
2016-07-19T03:17:17.208Z,91.25
2016-07-19T03:18:17.196Z,91.16
2016-07-19T03:19:17.187Z,91.44
2016-07-19T03:20:17.175Z,91.16
2016-07-19T03:21:16.456Z,91.35
2016-07-19T03:22:17.153Z,91.83
2016-07-19T03:23:17.141Z,91.53
2016-07-19T03:24:17.131Z,91.63
2016-07-19T03:25:16.410Z,92.11
2016-07-19T03:26:16.400Z,92.02
2016-07-19T03:27:16.422Z,91.83
2016-07-19T03:28:16.379Z,92.02
2016-07-19T03:29:17.072Z,92.02
2016-07-19T03:30:16.357Z,92.02
2016-07-19T03:31:16.349Z,92.3
2016-07-19T03:32:16.333Z,92.69
2016-07-19T03:33:16.324Z,92.02
2016-07-19T03:34:16.310Z,91.83
2016-07-19T03:35:17.012Z,91.63
2016-07-19T03:36:16.995Z,91.83
2016-07-19T03:37:16.279Z,91.73
2016-07-19T03:38:16.973Z,92.02
2016-07-19T03:39:16.256Z,91.63
2016-07-19T03:40:16.956Z,91.83
2016-07-19T03:41:16.233Z,91.35
2016-07-19T03:42:16.224Z,91.83
2016-07-19T03:43:16.211Z,91.92
2016-07-19T03:44:16.204Z,91.73
2016-07-19T03:45:16.899Z,91.44
2016-07-19T03:46:16.179Z,91.73
2016-07-19T03:47:16.170Z,91.83
2016-07-19T03:48:16.154Z,91.63
2016-07-19T03:49:16.147Z,91.83
2016-07-19T03:50:16.845Z,91.63
2016-07-19T03:51:16.129Z,92.11
2016-07-19T03:52:16.821Z,91.53
2016-07-19T03:53:16.106Z,91.35
2016-07-19T03:54:16.091Z,91.35
2016-07-19T03:55:16.078Z,91.53
2016-07-19T03:56:16.072Z,91.83
2016-07-19T03:57:16.059Z,91.63
2016-07-19T03:58:16.750Z,91.73
2016-07-19T03:59:16.035Z,92.02
2016-07-19T04:00:16.029Z,91.73
2016-07-19T04:01:16.016Z,91.73
2016-07-19T04:02:16.002Z,91.63
2016-07-19T04:03:15.991Z,91.73
2016-07-19T04:04:16.684Z,91.92
2016-07-19T04:05:15.971Z,91.83
2016-07-19T04:06:16.662Z,91.83
2016-07-19T04:07:16.655Z,91.63
2016-07-19T04:08:16.642Z,91.83
2016-07-19T04:09:15.928Z,91.83
2016-07-19T04:10:15.913Z,91.73
2016-07-19T04:11:15.908Z,91.92
2016-07-19T04:12:16.599Z,91.83
2016-07-19T04:13:15.879Z,91.83
2016-07-19T04:14:15.869Z,91.92
2016-07-19T04:15:15.858Z,91.83
2016-07-19T04:16:15.847Z,91.92
2016-07-19T04:17:15.835Z,91.53
2016-07-19T04:18:15.825Z,91.73
2016-07-19T04:19:15.821Z,91.73
2016-07-19T04:20:16.513Z,91.73
2016-07-19T04:21:16.501Z,91.83
2016-07-19T04:22:15.782Z,91.92
2016-07-19T04:23:15.774Z,91.73
2016-07-19T04:24:15.762Z,91.73
2016-07-19T04:25:15.748Z,91.83
2016-07-19T04:26:16.447Z,91.83
2016-07-19T04:27:16.484Z,91.53
2016-07-19T04:28:16.422Z,91.73
2016-07-19T04:29:16.412Z,91.73
2016-07-19T04:30:15.692Z,91.53
2016-07-19T04:31:15.686Z,91.83
2016-07-19T04:32:15.671Z,91.83
2016-07-19T04:33:16.371Z,91.83
2016-07-19T04:34:15.659Z,91.73
2016-07-19T04:35:15.842Z,91.53
2016-07-19T04:36:15.631Z,91.73
2016-07-19T04:37:16.325Z,91.63
2016-07-19T04:38:15.615Z,91.35
2016-07-19T04:39:16.303Z,91.16
2016-07-19T04:40:15.586Z,91.11
2016-07-19T04:41:15.575Z,91.2
2016-07-19T04:42:15.565Z,91.3
2016-07-19T04:43:15.554Z,90.91
2016-07-19T04:44:15.543Z,91.39
2016-07-19T04:45:15.537Z,91.39
2016-07-19T04:46:15.519Z,91.11
2016-07-19T04:47:16.431Z,90.91
2016-07-19T04:48:16.214Z,91.3
2016-07-19T04:49:16.199Z,90.91
2016-07-19T04:50:15.479Z,91.01
2016-07-19T04:51:15.468Z,90.91
2016-07-19T04:52:15.455Z,91.11
2016-07-19T04:53:16.153Z,90.91
2016-07-19T04:54:15.433Z,90.63
2016-07-19T04:55:15.423Z,90.63
2016-07-19T04:56:15.412Z,90.91
2016-07-19T04:57:16.107Z,90.82
2016-07-19T04:58:15.392Z,90.82
2016-07-19T04:59:16.086Z,90.91
2016-07-19T05:00:15.382Z,90.34
2016-07-19T05:01:16.067Z,90.63
2016-07-19T05:02:15.349Z,90.53
2016-07-19T05:03:15.340Z,90.63
2016-07-19T05:04:15.325Z,90.53
2016-07-19T05:05:15.317Z,90.72
2016-07-19T05:06:16.015Z,90.48
2016-07-19T05:07:15.346Z,90.82
2016-07-19T05:08:15.285Z,90.39
2016-07-19T05:09:15.274Z,90.19
2016-07-19T05:10:15.264Z,90.39
2016-07-19T05:11:15.255Z,90.39
2016-07-19T05:12:15.948Z,90.86
2016-07-19T05:13:15.234Z,91.05
2016-07-19T05:14:15.220Z,91.15
2016-07-19T05:15:15.918Z,91.15
2016-07-19T05:16:15.908Z,90.86
2016-07-19T05:17:15.899Z,90.96
2016-07-19T05:18:15.179Z,90.77
2016-07-19T05:19:15.166Z,90.86
2016-07-19T05:20:15.154Z,91
2016-07-19T05:21:15.148Z,90.86
2016-07-19T05:22:15.134Z,90.91
2016-07-19T05:23:15.125Z,90.91
2016-07-19T05:24:15.822Z,91.1
2016-07-19T05:25:15.104Z,91.29
2016-07-19T05:26:15.812Z,90.53
2016-07-19T05:27:15.792Z,90.62
2016-07-19T05:28:15.783Z,91.1
2016-07-19T05:29:15.065Z,90.62
2016-07-19T05:30:15.811Z,90.43
2016-07-19T05:31:15.750Z,90.23
2016-07-19T05:32:15.033Z,89.86
2016-07-19T05:33:15.728Z,89.86
2016-07-19T05:34:15.011Z,89.95
2016-07-19T05:35:15.001Z,90.23
2016-07-19T05:36:15.698Z,90
2016-07-19T05:37:14.978Z,89.9
2016-07-19T05:38:14.978Z,89.71
2016-07-19T05:39:14.959Z,89.9
2016-07-19T05:40:14.950Z,89.8
2016-07-19T05:41:14.942Z,89.9
2016-07-19T05:42:15.646Z,89.51
2016-07-19T05:43:15.629Z,89.61
2016-07-19T05:44:15.618Z,89.61
2016-07-19T05:45:14.900Z,89.71
2016-07-19T05:46:15.599Z,89.8
2016-07-19T05:47:14.879Z,89.23
2016-07-19T05:48:14.870Z,89.56
2016-07-19T05:49:14.860Z,89.94
2016-07-19T05:50:14.902Z,89.85
2016-07-19T05:51:15.550Z,89.56
2016-07-19T05:52:15.537Z,90.04
2016-07-19T05:53:14.824Z,89.65
2016-07-19T05:54:14.810Z,89.75
2016-07-19T05:55:14.804Z,89.85
2016-07-19T05:56:14.791Z,89.47
2016-07-19T05:57:14.781Z,89.65
2016-07-19T05:58:15.482Z,89.51
2016-07-19T05:59:15.468Z,89.41
2016-07-19T06:00:14.756Z,89.61
2016-07-19T06:01:15.455Z,89.51
2016-07-19T06:02:15.440Z,89.61
2016-07-19T06:03:14.728Z,89.7
2016-07-19T06:04:15.423Z,89.89
2016-07-19T06:05:14.714Z,89.7
2016-07-19T06:06:14.698Z,89.89
2016-07-19T06:07:15.402Z,89.89
2016-07-19T06:08:15.436Z,89.7
2016-07-19T06:09:15.374Z,89.65
2016-07-19T06:10:15.369Z,89.75
2016-07-19T06:11:14.649Z,89.75
2016-07-19T06:12:14.643Z,89.26
2016-07-19T06:13:15.337Z,89.94
2016-07-19T06:14:14.621Z,89.26
2016-07-19T06:15:14.611Z,89.26
2016-07-19T06:16:14.598Z,89.26
2016-07-19T06:17:14.592Z,89.5
2016-07-19T06:18:14.583Z,88.64
2016-07-19T06:19:14.574Z,88.64
2016-07-19T06:20:14.563Z,88.35
2016-07-19T06:21:14.558Z,88.73
2016-07-19T06:22:15.253Z,87.87
2016-07-19T06:23:14.536Z,87.29
2016-07-19T06:24:15.236Z,87.58
2016-07-19T06:25:15.226Z,87.49
2016-07-19T06:26:14.516Z,87.43
2016-07-19T06:27:15.224Z,86.95
2016-07-19T06:28:14.493Z,86.66
2016-07-19T06:29:14.483Z,86.76
2016-07-19T06:30:15.183Z,86.76
2016-07-19T06:31:15.172Z,86.18
2016-07-19T06:32:14.456Z,85.51
2016-07-19T06:33:14.448Z,85.61
2016-07-19T06:34:15.145Z,85.22
2016-07-19T06:35:15.338Z,85.32
2016-07-19T06:36:15.125Z,85.84
2016-07-19T06:37:14.414Z,84.94
2016-07-19T06:38:14.404Z,84.69
2016-07-19T06:39:14.406Z,84.59
2016-07-19T06:40:14.383Z,83.34
2016-07-19T06:41:14.379Z,84.01
2016-07-19T06:42:15.072Z,83.83
2016-07-19T06:43:14.360Z,83.83
2016-07-19T06:44:15.063Z,84.01
2016-07-19T06:45:15.050Z,84.01
2016-07-19T06:46:14.331Z,83.25
2016-07-19T06:47:14.323Z,83.77
2016-07-19T06:48:14.315Z,83.39
2016-07-19T06:49:14.305Z,82.42
2016-07-19T06:50:15.004Z,83.19
2016-07-19T06:51:15.071Z,82.42
2016-07-19T06:52:14.284Z,82.71
2016-07-19T06:53:14.271Z,81.84
2016-07-19T06:54:14.273Z,81.84
2016-07-19T06:55:14.255Z,81.75
2016-07-19T06:56:14.247Z,81.88
2016-07-19T06:57:14.238Z,81.21
2016-07-19T06:58:14.282Z,80.54
2016-07-19T06:59:14.942Z,79.96
2016-07-19T07:00:14.210Z,79.48
2016-07-19T07:01:14.912Z,79.86
2016-07-19T07:02:14.195Z,80.15
2016-07-19T07:03:14.893Z,80.44
2016-07-19T07:04:14.180Z,80.38
2016-07-19T07:05:14.171Z,80.19
2016-07-19T07:06:14.866Z,79.61
2016-07-19T07:07:14.154Z,79.81
2016-07-19T07:08:14.850Z,79.23
2016-07-19T07:09:14.843Z,79.61
2016-07-19T07:10:14.836Z,79.13
2016-07-19T07:11:14.826Z,78.94
2016-07-19T07:12:14.117Z,79.71
2016-07-19T07:13:14.106Z,78.46
2016-07-19T07:14:14.094Z,78.17
2016-07-19T07:15:14.800Z,78.36
2016-07-19T07:16:14.083Z,78.4
2016-07-19T07:17:14.074Z,76.96
2016-07-19T07:18:14.066Z,77.06
2016-07-19T07:19:14.057Z,77.15
2016-07-19T07:20:14.754Z,76.76
2016-07-19T07:21:14.762Z,77.34
2016-07-19T07:22:14.743Z,77.86
2016-07-19T07:23:14.736Z,77.48
2016-07-19T07:24:14.018Z,76.51
2016-07-19T07:25:14.008Z,75.45
2016-07-19T07:26:14.708Z,76.71
2016-07-19T07:27:13.994Z,77.19
2016-07-19T07:28:14.692Z,76.32
2016-07-19T07:29:13.976Z,74.97
2016-07-19T07:30:14.678Z,74.88
2016-07-19T07:31:13.963Z,74.78
2016-07-19T07:32:13.952Z,75.59
2016-07-19T07:33:13.946Z,74.82
2016-07-19T07:34:13.936Z,74.14
2016-07-19T07:35:14.637Z,74.62
2016-07-19T07:36:14.632Z,73.47
2016-07-19T07:37:14.619Z,72.99
2016-07-19T07:38:14.615Z,71.86
2016-07-19T07:39:14.607Z,69.74
2016-07-19T07:40:13.899Z,66.33
2016-07-19T07:41:13.892Z,65.05
2016-07-19T07:42:13.885Z,63.92
2016-07-19T07:43:13.879Z,61.17
2016-07-19T07:44:14.582Z,61.22
2016-07-19T07:45:13.865Z,59.7
2016-07-19T07:46:13.865Z,57.11
2016-07-19T07:47:13.858Z,56.82
2016-07-19T07:48:14.558Z,55.19
2016-07-19T07:49:14.554Z,53.57
2016-07-19T07:50:13.844Z,53.57
2016-07-19T07:51:13.838Z,51.75
2016-07-19T07:52:13.835Z,51.97
2016-07-19T07:53:13.833Z,46.05
2016-07-19T07:54:13.829Z,43.54
2016-07-19T07:55:13.826Z,45.03
2016-07-19T07:56:14.533Z,44.76
2016-07-19T07:57:14.529Z,42.65
2016-07-19T07:58:14.527Z,40.92
2016-07-19T07:59:13.825Z,38.89
2016-07-19T08:00:13.817Z,39.1
2016-07-19T08:01:13.818Z,39.14
2016-07-19T08:02:14.520Z,39.62
2016-07-19T08:03:13.815Z,36.22
2016-07-19T08:04:13.810Z,37.31
2016-07-19T08:05:13.822Z,36.06
2016-07-19T08:06:13.811Z,36.08
2016-07-19T08:07:13.806Z,35.99
2016-07-19T08:08:13.814Z,36.21
2016-07-19T08:09:14.517Z,31.7
2016-07-19T08:10:14.518Z,31.81
2016-07-19T08:11:14.516Z,32.98
2016-07-19T08:12:14.518Z,32.9
2016-07-19T08:13:14.517Z,32.43
2016-07-19T08:14:14.518Z,32.82
2016-07-19T08:15:13.870Z,31.26
2016-07-19T08:16:14.523Z,32.92
2016-07-19T08:17:13.814Z,33.13
2016-07-19T08:18:14.519Z,32.05
2016-07-19T08:19:13.814Z,31.16
2016-07-19T08:20:13.817Z,32.05
2016-07-19T08:21:14.525Z,31.57
2016-07-19T08:22:13.817Z,30.4
2016-07-19T08:23:14.528Z,29.43
2016-07-19T08:24:13.818Z,30.31
2016-07-19T08:25:13.820Z,28.93
2016-07-19T08:26:13.824Z,29.13
2016-07-19T08:27:13.829Z,29.03
2016-07-19T08:28:13.827Z,29.24
2016-07-19T08:29:13.831Z,27.47
2016-07-19T08:30:13.832Z,28.16
2016-07-19T08:31:13.835Z,28.17
2016-07-19T08:32:13.833Z,28.09
2016-07-19T08:33:13.838Z,27.4
2016-07-19T08:34:13.841Z,26.81
2016-07-19T08:35:14.050Z,25.52
2016-07-19T08:36:13.841Z,24.84
2016-07-19T08:37:13.847Z,26.02
2016-07-19T08:38:13.850Z,25.62
2016-07-19T08:39:14.559Z,25.62
2016-07-19T08:40:14.560Z,26.72
2016-07-19T08:41:14.566Z,25.54
2016-07-19T08:42:13.862Z,24.17
2016-07-19T08:43:14.156Z,25.35
2016-07-19T08:44:14.578Z,25.55
2016-07-19T08:45:13.869Z,25.74
2016-07-19T08:46:13.876Z,24.87
2016-07-19T08:47:13.873Z,23.19
2016-07-19T08:48:13.874Z,22.69
2016-07-19T08:49:14.589Z,23.27
2016-07-19T08:50:14.592Z,25.14
2016-07-19T08:51:13.893Z,25.61
2016-07-19T08:52:13.886Z,27.75
2016-07-19T08:53:14.602Z,28.31
2016-07-19T08:54:13.891Z,29.37
2016-07-19T08:55:13.892Z,28.67
2016-07-19T08:56:14.695Z,27.36
2016-07-19T08:57:14.617Z,29.02
2016-07-19T08:58:13.901Z,29.49
2016-07-19T08:59:13.905Z,28.79
2016-07-19T09:00:13.906Z,28.58
2016-07-19T09:01:14.612Z,26.92
2016-07-19T09:02:13.903Z,27.49
2016-07-19T09:03:13.906Z,28.85
2016-07-19T09:04:13.912Z,28.25
2016-07-19T09:05:13.916Z,25.61
2016-07-19T09:06:14.616Z,27.17
2016-07-19T09:07:13.911Z,28.43
2016-07-19T09:08:14.620Z,30.27
2016-07-19T09:09:13.907Z,29.08
2016-07-19T09:10:13.908Z,30.24
2016-07-19T09:11:13.912Z,30.44
2016-07-19T09:12:13.931Z,32.47
2016-07-19T09:13:14.615Z,33.93
2016-07-19T09:14:13.916Z,34.61
2016-07-19T09:15:14.609Z,34.73
2016-07-19T09:16:13.903Z,33.93
2016-07-19T09:17:13.903Z,35.3
2016-07-19T09:18:13.900Z,35.59
2016-07-19T09:19:14.606Z,34.5
2016-07-19T09:20:13.899Z,35.77
2016-07-19T09:21:13.896Z,36.35
2016-07-19T09:22:14.598Z,36.14
2016-07-19T09:23:13.888Z,34.88
2016-07-19T09:24:13.892Z,35.93
2016-07-19T09:25:13.892Z,35.83
2016-07-19T09:26:13.885Z,35.34
2016-07-19T09:27:13.894Z,32.82
2016-07-19T09:28:14.593Z,31.28
2016-07-19T09:29:13.884Z,31.41
2016-07-19T09:30:13.886Z,30.08
2016-07-19T09:31:13.886Z,31.05
2016-07-19T09:32:14.589Z,28.81
2016-07-19T09:33:13.886Z,30.18
2016-07-19T09:34:14.592Z,31.05
2016-07-19T09:35:13.885Z,31.33
2016-07-19T09:36:14.598Z,30.05
2016-07-19T09:37:14.605Z,28.99
2016-07-19T09:38:14.596Z,30.55
2016-07-19T09:39:13.884Z,30.94
2016-07-19T09:40:13.888Z,29.39
2016-07-19T09:41:14.591Z,26.88
2016-07-19T09:42:13.891Z,26.88
2016-07-19T09:43:13.887Z,26.79
2016-07-19T09:44:14.594Z,27.09
2016-07-19T09:45:14.598Z,28.26
2016-07-19T09:46:14.596Z,26.61
2016-07-19T09:47:14.598Z,27.29
2016-07-19T09:48:13.886Z,24.74
2016-07-19T09:49:13.894Z,26.4
2016-07-19T09:50:13.898Z,28.94
2016-07-19T09:51:13.893Z,25.33
2016-07-19T09:52:14.600Z,26.01
2016-07-19T09:53:13.897Z,25.52
2016-07-19T09:54:13.894Z,25.52
2016-07-19T09:55:14.601Z,25.32
2016-07-19T09:56:13.896Z,26.59
2016-07-19T09:57:13.898Z,26.49
2016-07-19T09:58:14.608Z,25.32
2016-07-19T09:59:14.606Z,24.91
2016-07-19T10:00:13.900Z,24.81
2016-07-19T10:01:14.603Z,25.89
2016-07-19T10:02:14.607Z,25.68
2016-07-19T10:03:14.605Z,27.03
2016-07-19T10:04:14.599Z,28.2
2016-07-19T10:05:13.899Z,26.45
2016-07-19T10:06:14.598Z,28.11
2016-07-19T10:07:14.600Z,29.67
2016-07-19T10:08:14.596Z,30.06
2016-07-19T10:09:13.891Z,28.99
2016-07-19T10:10:14.595Z,28.3
2016-07-19T10:11:13.890Z,30.54
2016-07-19T10:12:13.885Z,29.36
2016-07-19T10:13:14.596Z,28.29
2016-07-19T10:14:13.884Z,29.27
2016-07-19T10:15:13.892Z,29.28
2016-07-19T10:16:13.885Z,27.13
2016-07-19T10:17:13.882Z,27.91
2016-07-19T10:18:14.587Z,28.03
2016-07-19T10:19:14.586Z,25.71
2016-07-19T10:20:13.878Z,27.2
2016-07-19T10:21:13.879Z,24.48
2016-07-19T10:22:13.880Z,23.12
2016-07-19T10:23:14.588Z,24.7
2016-07-19T10:24:14.595Z,22.26
2016-07-19T10:25:14.594Z,23.74
2016-07-19T10:26:14.594Z,24.71
2016-07-19T10:27:13.886Z,24.71
2016-07-19T10:28:13.890Z,24.99
2016-07-19T10:29:14.601Z,25.29
2016-07-19T10:30:13.892Z,22.45
2016-07-19T10:31:14.613Z,23.23
2016-07-19T10:32:13.911Z,24.31
2016-07-19T10:33:13.899Z,22.47
2016-07-19T10:34:13.903Z,23.16
2016-07-19T10:35:14.853Z,22
2016-07-19T10:36:13.909Z,21.9
2016-07-19T10:37:13.913Z,22.11
2016-07-19T10:38:13.915Z,22.91
2016-07-19T10:39:13.921Z,21.92
2016-07-19T10:40:13.921Z,20.75
2016-07-19T10:41:14.633Z,21.65
2016-07-19T10:42:13.934Z,20.57
2016-07-19T10:43:13.936Z,20.48
2016-07-19T10:44:14.648Z,19.2
2016-07-19T10:45:13.944Z,19.31
2016-07-19T10:46:13.955Z,18.92
2016-07-19T10:47:13.955Z,18.43
2016-07-19T10:48:13.962Z,19.13
2016-07-19T10:49:14.671Z,18.24
2016-07-19T10:50:14.676Z,17.95
2016-07-19T10:51:14.684Z,18.94
2016-07-19T10:52:13.982Z,17.26
2016-07-19T10:53:13.985Z,17.37
2016-07-19T10:54:14.700Z,16.59
2016-07-19T10:55:13.998Z,18.16
2016-07-19T10:56:14.710Z,16.68
2016-07-19T10:57:14.010Z,16.69
2016-07-19T10:58:14.017Z,17.08
2016-07-19T10:59:14.729Z,17.57
2016-07-19T11:00:14.745Z,17.68
2016-07-19T11:01:14.033Z,18.08
2016-07-19T11:02:14.044Z,20.25
2016-07-19T11:03:14.047Z,18.37
2016-07-19T11:04:14.053Z,16.89
2016-07-19T11:05:14.771Z,17.88
2016-07-19T11:06:14.068Z,17.39
2016-07-19T11:07:14.778Z,18.27
2016-07-19T11:08:14.085Z,16.79
2016-07-19T11:09:14.087Z,17.57
2016-07-19T11:10:14.800Z,17.68
2016-07-19T11:11:14.098Z,16.78
2016-07-19T11:12:14.107Z,18.27
2016-07-19T11:13:14.820Z,20.34
2016-07-19T11:14:14.825Z,18.66
2016-07-19T11:15:14.128Z,18.17
2016-07-19T11:16:14.130Z,18.77
2016-07-19T11:17:14.842Z,20.06
2016-07-19T11:18:14.850Z,18.97
2016-07-19T11:19:14.150Z,18.37
2016-07-19T11:20:14.862Z,17.68
2016-07-19T11:21:14.162Z,18.27
2016-07-19T11:22:14.875Z,18.96
2016-07-19T11:23:14.174Z,19.15
2016-07-19T11:24:14.888Z,19.74
2016-07-19T11:25:14.187Z,19.26
2016-07-19T11:26:14.905Z,19.07
2016-07-19T11:27:14.904Z,18.18
2016-07-19T11:28:14.208Z,20.15
2016-07-19T11:29:14.212Z,19.07
2016-07-19T11:30:14.219Z,17.68
2016-07-19T11:31:14.227Z,16.99
2016-07-19T11:32:14.232Z,19.26
2016-07-19T11:33:14.239Z,17.68
2016-07-19T11:34:14.255Z,18.27
2016-07-19T11:35:14.256Z,17.38
2016-07-19T11:36:14.270Z,17.47
2016-07-19T11:37:15.177Z,17.57
2016-07-19T11:38:14.994Z,17.57
2016-07-19T11:39:14.989Z,18.56
2016-07-19T11:40:14.293Z,17.47
2016-07-19T11:41:14.298Z,16.6
2016-07-19T11:42:14.306Z,19.17
2016-07-19T11:43:15.022Z,18.29
2016-07-19T11:44:15.034Z,18.18
2016-07-19T11:45:15.033Z,17
2016-07-19T11:46:14.336Z,17.3
2016-07-19T11:47:14.338Z,18.18
2016-07-19T11:48:15.055Z,16.9
2016-07-19T11:49:15.060Z,19.07
2016-07-19T11:50:15.068Z,18.88
2016-07-19T11:51:15.081Z,18.29
2016-07-19T11:52:14.375Z,17.51
2016-07-19T11:53:15.092Z,18.01
2016-07-19T11:54:15.095Z,18.9
2016-07-19T11:55:14.401Z,16.72
2016-07-19T11:56:14.403Z,17.52
2016-07-19T11:57:15.115Z,17.93
2016-07-19T11:58:15.124Z,16.44
2016-07-19T11:59:14.423Z,16.93
2016-07-19T12:00:14.430Z,18.61
2016-07-19T12:01:14.439Z,18.02
2016-07-19T12:02:15.154Z,16.83
2016-07-19T12:03:14.455Z,18.21
2016-07-19T12:04:15.168Z,17.33
2016-07-19T12:05:15.179Z,19.12
2016-07-19T12:06:15.189Z,16.84
2016-07-19T12:07:14.484Z,17.44
2016-07-19T12:08:14.542Z,15.36
2016-07-19T12:09:14.503Z,16.25
2016-07-19T12:10:14.513Z,15.06
2016-07-19T12:11:15.227Z,15.85
2016-07-19T12:12:15.243Z,16.64
2016-07-19T12:13:14.546Z,16.94
2016-07-19T12:14:14.538Z,15.75
2016-07-19T12:15:14.549Z,17.54
2016-07-19T12:16:15.263Z,18.23
2016-07-19T12:17:14.573Z,19.13
2016-07-19T12:18:14.569Z,15.36
2016-07-19T12:19:14.575Z,16.06
2016-07-19T12:20:14.585Z,18.13
2016-07-19T12:21:14.590Z,17.54
2016-07-19T12:22:14.595Z,18.33
2016-07-19T12:23:15.310Z,17.54
2016-07-19T12:24:14.610Z,16.65
2016-07-19T12:25:14.643Z,16.75
2016-07-19T12:26:14.633Z,16.85
2016-07-19T12:27:14.636Z,17.74
2016-07-19T12:28:15.372Z,16.66
2016-07-19T12:29:14.649Z,16.86
2016-07-19T12:30:15.371Z,15.87
2016-07-19T12:31:15.380Z,16.25
2016-07-19T12:32:15.382Z,16.65
2016-07-19T12:33:14.677Z,16.76
2016-07-19T12:34:14.686Z,17.85
2016-07-19T12:35:15.412Z,16.06
2016-07-19T12:36:15.405Z,17.06
2016-07-19T12:37:14.703Z,16.97
2016-07-19T12:38:15.420Z,17.76
2016-07-19T12:39:15.428Z,16.86
2016-07-19T12:40:15.436Z,17.06
2016-07-19T12:41:14.737Z,16.17
2016-07-19T12:42:14.753Z,16.37
2016-07-19T12:43:15.462Z,14.29
2016-07-19T12:44:14.758Z,17.36
2016-07-19T12:45:14.771Z,16.37
2016-07-19T12:46:15.485Z,16.17
2016-07-19T12:47:14.783Z,15.37
2016-07-19T12:48:14.793Z,16.07
2016-07-19T12:49:15.512Z,16.67
2016-07-19T12:50:15.521Z,16.77
2016-07-19T12:51:14.816Z,16.67
2016-07-19T12:52:14.830Z,16.36
2016-07-19T12:53:14.834Z,17.14
2016-07-19T12:54:15.546Z,18.24